Time;durP1;ratioP1;P1;durP2;ratioP2;P2;SDS_P1;SDS_P2;PMS_P1;PMS_P2;Temp;Humidity;BMP_temperature;BMP_pressure;BME280_temperature;BME280_humidity;BME280_pressure;Samples;Min_cycle;Max_cycle;Signal;HPM_P1;HPM_P2
2021/05/31 00:01:37;;;;;;;7.25;5.50;;;4.60;99.90;;;;;;5015925;28;20037;-91
2021/05/31 00:04:05;;;;;;;7.30;5.47;;;4.60;99.90;;;;;;5017014;28;20060;-90
2021/05/31 00:06:42;;;;;;;5.22;4.72;;;4.70;99.90;;;;;;5020505;28;20045;-90
2021/05/31 00:09:09;;;;;;;5.50;4.63;;;4.80;99.90;;;;;;5020178;28;20053;-91
2021/05/31 00:11:36;;;;;;;10.95;5.15;;;4.80;99.90;;;;;;5020177;28;20049;-90
2021/05/31 00:14:03;;;;;;;8.23;4.88;;;4.80;99.90;;;;;;5023531;28;20049;-91
2021/05/31 00:16:30;;;;;;;8.75;5.30;;;4.70;99.90;;;;;;5025487;28;20132;-90
2021/05/31 00:18:56;;;;;;;5.18;4.55;;;4.60;99.90;;;;;;5019643;28;20083;-91
2021/05/31 00:21:23;;;;;;;6.35;5.00;;;4.50;99.90;;;;;;5019882;28;20494;-91
2021/05/31 00:23:50;;;;;;;6.90;5.03;;;4.40;99.90;;;;;;5019806;28;20053;-91
2021/05/31 00:26:18;;;;;;;6.40;5.10;;;4.50;99.90;;;;;;5037037;28;20081;-91
2021/05/31 00:28:45;;;;;;;6.03;4.93;;;4.60;99.90;;;;;;5019352;28;20049;-90
2021/05/31 00:31:12;;;;;;;6.03;4.85;;;4.50;99.90;;;;;;5019652;28;20052;-90
2021/05/31 00:33:40;;;;;;;6.43;4.95;;;4.40;99.90;;;;;;5036838;28;20413;-91
2021/05/31 00:36:08;;;;;;;5.82;5.07;;;4.30;99.90;;;;;;5019558;28;20132;-90
2021/05/31 00:38:35;;;;;;;10.07;5.72;;;4.40;99.90;;;;;;5019330;28;20049;-91
2021/05/31 00:41:03;;;;;;;8.05;4.72;;;4.40;99.90;;;;;;5019672;28;20128;-91
2021/05/31 00:43:33;;;;;;;6.22;5.03;;;4.20;99.90;;;;;;5019360;28;20409;-91
2021/05/31 00:46:01;;;;;;;6.55;4.85;;;4.10;99.90;;;;;;5019244;28;20049;-91
2021/05/31 00:48:29;;;;;;;7.80;5.10;;;4.00;99.90;;;;;;5019171;28;20133;-91
2021/05/31 00:50:57;;;;;;;5.85;5.00;;;4.00;99.90;;;;;;5019292;28;20057;-91
2021/05/31 00:53:25;;;;;;;8.60;4.88;;;4.00;99.90;;;;;;5019297;28;20048;-91
2021/05/31 00:55:52;;;;;;;6.75;5.15;;;3.90;99.90;;;;;;5018710;28;20057;-91
2021/05/31 00:58:19;;;;;;;8.43;5.38;;;3.80;99.90;;;;;;5019193;28;20084;-91
2021/05/31 01:00:46;;;;;;;10.23;5.45;;;3.80;99.90;;;;;;5019028;28;20124;-90
2021/05/31 01:03:13;;;;;;;8.38;5.95;;;3.70;99.90;;;;;;5019098;28;20060;-91
2021/05/31 01:05:40;;;;;;;7.80;5.68;;;3.70;99.90;;;;;;5018993;28;20136;-91
2021/05/31 01:08:11;;;;;;;10.40;5.55;;;3.70;99.90;;;;;;5018940;28;20500;-91
2021/05/31 01:10:54;;;;;;;7.60;5.70;;;3.70;99.90;;;;;;5018784;28;20049;-91
2021/05/31 01:13:41;;;;;;;9.57;5.78;;;3.70;99.90;;;;;;5035930;28;20056;-91
2021/05/31 01:16:33;;;;;;;9.93;5.90;;;3.60;99.90;;;;;;5035751;28;20071;-90
2021/05/31 01:19:05;;;;;;;9.48;5.28;;;3.60;99.90;;;;;;5018910;28;20095;-91
2021/05/31 01:22:03;;;;;;;9.48;5.53;;;3.60;99.90;;;;;;5018722;28;20054;-91
2021/05/31 01:24:50;;;;;;;8.50;5.53;;;3.60;99.90;;;;;;5018611;28;20053;-91
2021/05/31 01:27:20;;;;;;;7.60;6.03;;;3.60;99.90;;;;;;5019052;28;20052;-91
2021/05/31 01:30:09;;;;;;;8.68;5.68;;;3.60;99.90;;;;;;5018907;28;20099;-91
2021/05/31 01:32:41;;;;;;;8.15;5.70;;;3.50;99.90;;;;;;5023845;28;20045;-91
2021/05/31 01:35:12;;;;;;;6.22;5.50;;;3.40;99.90;;;;;;5022334;28;20113;-90
2021/05/31 01:37:40;;;;;;;7.47;5.05;;;3.40;99.90;;;;;;5018959;28;20050;-91
2021/05/31 01:40:10;;;;;;;11.73;6.72;;;3.30;99.90;;;;;;5018654;28;20402;-91
2021/05/31 01:42:37;;;;;;;6.72;5.30;;;3.30;99.90;;;;;;5018580;28;20059;-91
2021/05/31 01:45:05;;;;;;;6.43;5.20;;;3.30;99.90;;;;;;5018484;28;20064;-91
2021/05/31 01:47:33;;;;;;;9.18;5.55;;;3.20;99.90;;;;;;5035900;28;20045;-90
2021/05/31 01:50:03;;;;;;;7.25;5.88;;;3.30;99.90;;;;;;5018466;28;20113;-91
2021/05/31 01:52:31;;;;;;;5.78;4.93;;;3.30;99.90;;;;;;5018106;28;20096;-91
2021/05/31 01:54:58;;;;;;;6.20;5.60;;;3.30;99.90;;;;;;5017715;28;20080;-91
2021/05/31 01:57:26;;;;;;;9.25;5.70;;;3.20;99.90;;;;;;5018397;28;20064;-91
2021/05/31 01:59:53;;;;;;;11.70;6.20;;;3.10;99.90;;;;;;5035205;28;20045;-91
2021/05/31 02:02:29;;;;;;;6.57;5.38;;;3.00;99.90;;;;;;5035154;28;20050;-91
2021/05/31 02:04:56;;;;;;;10.55;5.55;;;3.00;99.90;;;;;;5034910;28;20071;-91
2021/05/31 02:07:23;;;;;;;8.63;5.32;;;2.90;99.90;;;;;;5017609;28;20056;-92
2021/05/31 02:09:50;;;;;;;7.50;5.47;;;2.90;99.90;;;;;;5017827;28;20059;-91
2021/05/31 02:12:21;;;;;;;9.90;5.80;;;2.90;99.90;;;;;;5017932;28;20056;-91
2021/05/31 02:14:54;;;;;;;8.45;5.50;;;2.90;99.90;;;;;;5034959;28;20504;-91
2021/05/31 02:17:31;;;;;;;6.88;5.68;;;2.80;99.90;;;;;;5017643;28;20059;-91
2021/05/31 02:20:02;;;;;;;9.30;5.63;;;2.80;99.90;;;;;;5017411;28;20045;-91
2021/05/31 02:22:32;;;;;;;7.97;5.70;;;2.70;99.90;;;;;;5017541;28;20053;-91
2021/05/31 02:24:59;;;;;;;6.30;5.35;;;2.70;99.90;;;;;;5017501;28;20474;-91
2021/05/31 02:27:28;;;;;;;11.32;6.00;;;2.60;99.90;;;;;;5016904;28;20049;-90
2021/05/31 02:29:55;;;;;;;6.00;5.15;;;2.50;99.90;;;;;;5017198;28;20490;-88
2021/05/31 02:32:22;;;;;;;9.88;5.75;;;2.60;99.90;;;;;;5017344;28;20056;-91
2021/05/31 02:34:49;;;;;;;7.03;5.70;;;2.60;99.90;;;;;;5017138;28;20095;-91
2021/05/31 02:37:16;;;;;;;9.55;5.40;;;2.60;99.90;;;;;;5017439;28;20069;-91
2021/05/31 02:39:42;;;;;;;9.43;5.68;;;2.60;99.90;;;;;;5017328;28;20053;-91
2021/05/31 02:42:09;;;;;;;6.18;5.57;;;2.60;99.90;;;;;;5017251;28;20057;-91
2021/05/31 02:44:36;;;;;;;6.72;5.82;;;2.50;99.90;;;;;;5017147;28;20046;-91
2021/05/31 02:47:03;;;;;;;8.23;5.53;;;2.50;99.90;;;;;;5017321;28;20057;-91
2021/05/31 02:49:30;;;;;;;13.25;5.07;;;2.50;99.90;;;;;;5022131;28;20041;-91
2021/05/31 02:51:57;;;;;;;11.60;6.20;;;2.40;99.90;;;;;;5019372;28;20061;-91
2021/05/31 02:54:23;;;;;;;11.80;6.47;;;2.40;99.90;;;;;;5016993;28;20071;-91
2021/05/31 02:56:50;;;;;;;11.82;5.45;;;2.40;99.90;;;;;;5016499;28;20056;-91
2021/05/31 02:59:17;;;;;;;11.18;6.22;;;2.40;99.90;;;;;;5017005;28;20057;-90
2021/05/31 03:01:43;;;;;;;7.65;5.50;;;2.40;99.90;;;;;;5017116;28;20129;-91
2021/05/31 03:04:10;;;;;;;10.25;5.68;;;2.40;99.90;;;;;;5017143;28;20534;-91
2021/05/31 03:06:37;;;;;;;10.82;5.43;;;2.50;99.90;;;;;;5016836;28;20072;-91
2021/05/31 03:09:03;;;;;;;9.43;5.88;;;2.60;99.90;;;;;;5017097;28;20068;-91
2021/05/31 03:11:30;;;;;;;7.47;5.20;;;2.60;99.90;;;;;;5016859;28;20144;-91
2021/05/31 03:13:57;;;;;;;6.50;5.75;;;2.50;99.90;;;;;;5016510;28;20069;-91
2021/05/31 03:16:24;;;;;;;7.28;5.50;;;2.50;99.90;;;;;;5016659;28;20049;-92
2021/05/31 03:18:51;;;;;;;6.47;5.45;;;2.60;99.90;;;;;;5016617;28;20053;-91
2021/05/31 03:21:18;;;;;;;11.32;5.65;;;2.70;99.90;;;;;;5017223;28;20141;-91
2021/05/31 03:23:45;;;;;;;6.70;5.40;;;2.60;99.90;;;;;;5016622;28;20053;-91
2021/05/31 03:26:11;;;;;;;7.25;5.25;;;2.60;99.90;;;;;;5017352;28;20053;-91
2021/05/31 03:28:38;;;;;;;9.23;5.97;;;2.60;99.90;;;;;;5016855;28;20136;-91
2021/05/31 03:31:05;;;;;;;6.78;5.20;;;2.60;99.90;;;;;;5017153;28;20057;-90
2021/05/31 03:33:31;;;;;;;8.02;5.35;;;2.50;99.90;;;;;;5016514;28;20417;-91
2021/05/31 03:35:58;;;;;;;8.10;5.47;;;2.50;99.90;;;;;;5016807;28;20057;-91
2021/05/31 03:38:25;;;;;;;8.23;5.03;;;2.50;99.90;;;;;;5015909;28;20147;-91
2021/05/31 03:40:51;;;;;;;9.80;5.55;;;2.60;99.90;;;;;;5016142;28;20132;-91
2021/05/31 03:43:18;;;;;;;12.75;6.15;;;2.50;99.90;;;;;;5016230;28;20055;-91
2021/05/31 03:45:46;;;;;;;6.75;5.32;;;2.50;99.90;;;;;;5016229;28;20076;-91
2021/05/31 03:48:13;;;;;;;6.95;5.57;;;2.40;99.90;;;;;;5016452;28;20057;-91
2021/05/31 03:50:40;;;;;;;6.53;5.70;;;2.40;99.90;;;;;;5015894;28;20048;-89
2021/05/31 03:53:06;;;;;;;6.38;5.30;;;2.40;99.90;;;;;;5016070;28;20052;-91
2021/05/31 03:55:33;;;;;;;6.28;5.63;;;2.40;99.90;;;;;;5015889;28;20061;-91
2021/05/31 03:58:00;;;;;;;7.65;6.03;;;2.40;99.90;;;;;;5016299;28;20056;-91
2021/05/31 04:00:28;;;;;;;7.20;5.53;;;2.40;99.90;;;;;;5016045;28;20111;-91
2021/05/31 04:02:55;;;;;;;8.57;6.85;;;2.50;99.90;;;;;;5016124;28;20059;-91
2021/05/31 04:05:24;;;;;;;9.68;6.25;;;2.50;99.90;;;;;;5018708;28;20046;-91
2021/05/31 04:13:21;;;;;;;9.68;6.75;;;2.70;99.90;;;;;;5033173;28;20050;-91
2021/05/31 04:15:49;;;;;;;7.25;6.15;;;2.80;99.90;;;;;;5015896;28;20046;-91
2021/05/31 04:18:16;;;;;;;10.52;6.80;;;2.90;99.90;;;;;;5015969;28;20421;-91
2021/05/31 04:20:43;;;;;;;10.70;6.88;;;3.00;99.90;;;;;;5015064;28;20057;-91
2021/05/31 04:23:09;;;;;;;11.15;6.93;;;3.00;99.90;;;;;;5033149;28;20046;-91
2021/05/31 04:25:36;;;;;;;9.63;7.00;;;3.20;99.90;;;;;;5015378;28;20053;-90
2021/05/31 04:28:03;;;;;;;10.05;6.32;;;3.30;99.90;;;;;;5016247;28;20475;-91
2021/05/31 04:30:30;;;;;;;11.20;6.82;;;3.40;99.90;;;;;;5015851;28;20057;-91
2021/05/31 04:32:57;;;;;;;10.80;6.55;;;3.50;99.90;;;;;;5015482;28;20136;-91
2021/05/31 04:35:24;;;;;;;12.57;7.88;;;3.60;99.90;;;;;;5032781;28;20079;-90
2021/05/31 04:37:56;;;;;;;12.15;7.35;;;3.70;99.90;;;;;;5032832;28;20056;-91
2021/05/31 04:40:22;;;;;;;14.75;7.55;;;3.90;99.90;;;;;;5015557;28;20172;-90
2021/05/31 04:42:49;;;;;;;9.38;6.43;;;4.00;99.90;;;;;;5015654;28;20045;-91
2021/05/31 04:45:16;;;;;;;11.23;5.53;;;4.20;99.90;;;;;;5015499;28;20041;-91
2021/05/31 04:47:43;;;;;;;5.40;4.90;;;4.30;99.90;;;;;;5017620;28;20488;-91
2021/05/31 04:50:11;;;;;;;7.80;5.22;;;4.50;99.90;;;;;;5016569;28;20049;-90
2021/05/31 04:52:38;;;;;;;15.10;7.20;;;4.60;99.90;;;;;;5018979;28;20053;-88
2021/05/31 04:55:05;;;;;;;12.77;5.25;;;4.70;99.90;;;;;;5019045;28;20068;-89
2021/05/31 04:57:32;;;;;;;7.90;5.00;;;4.90;99.90;;;;;;5019283;28;20041;-87
2021/05/31 04:59:58;;;;;;;6.70;4.93;;;5.00;99.90;;;;;;5019131;28;20053;-88
2021/05/31 05:02:26;;;;;;;6.13;4.75;;;5.00;99.90;;;;;;5018895;28;20067;-89
2021/05/31 05:04:53;;;;;;;6.75;4.30;;;5.20;99.90;;;;;;5019181;28;20449;-87
2021/05/31 05:07:21;;;;;;;5.15;4.65;;;5.40;99.90;;;;;;5018954;28;20049;-89
2021/05/31 05:09:47;;;;;;;5.90;4.68;;;5.60;99.90;;;;;;5019004;28;20141;-90
2021/05/31 05:12:14;;;;;;;8.05;3.65;;;6.00;99.90;;;;;;5036265;28;20051;-88
2021/05/31 05:14:43;;;;;;;3.67;3.38;;;6.60;99.90;;;;;;5018586;28;20049;-90
2021/05/31 05:17:09;;;;;;;5.15;2.50;;;7.50;99.90;;;;;;5018811;28;20077;-91
2021/05/31 05:19:39;;;;;;;4.15;2.10;;;8.80;99.90;;;;;;5036106;28;20096;-91
2021/05/31 05:22:06;;;;;;;3.60;1.98;;;10.20;99.90;;;;;;5019892;28;20049;-91
2021/05/31 05:24:33;;;;;;;3.60;1.98;;;11.80;99.90;;;;;;5021664;28;20045;-92
2021/05/31 05:27:05;;;;;;;3.40;1.63;;;12.70;99.90;;;;;;5019780;28;20104;-91
2021/05/31 05:29:32;;;;;;;7.90;2.00;;;13.10;99.90;;;;;;5018463;28;20117;-89
2021/05/31 05:31:59;;;;;;;10.32;1.70;;;14.90;99.90;;;;;;5018555;28;20064;-88
2021/05/31 05:34:27;;;;;;;12.25;2.03;;;15.30;99.90;;;;;;5018927;28;20452;-89
2021/05/31 05:37:00;;;;;;;11.00;2.17;;;16.60;99.90;;;;;;5018564;28;20508;-88
2021/05/31 05:42:51;;;;;;;11.98;2.63;;;17.70;96.70;;;;;;5016680;28;20128;-92
2021/05/31 05:48:04;;;;;;;9.93;2.65;;;18.10;93.50;;;;;;5035477;28;20049;-89
2021/05/31 05:50:31;;;;;;;4.07;2.05;;;18.60;90.90;;;;;;5035551;28;20045;-90
2021/05/31 05:52:58;;;;;;;5.25;2.00;;;19.50;85.40;;;;;;5035572;28;20133;-88
2021/05/31 05:55:25;;;;;;;12.43;2.70;;;20.50;81.10;;;;;;5018401;28;20136;-89
2021/05/31 05:57:51;;;;;;;11.43;3.00;;;20.80;78.10;;;;;;5018359;28;20045;-90
2021/05/31 06:00:25;;;;;;;61.08;30.48;;;21.40;74.00;;;;;;5035667;28;20100;-89
2021/05/31 06:02:53;;;;;;;18.17;5.85;;;21.70;70.50;;;;;;5012947;28;20053;-89
2021/05/31 06:05:20;;;;;;;20.27;4.53;;;21.90;68.50;;;;;;5035279;28;20056;-90
2021/05/31 06:07:47;;;;;;;31.60;10.10;;;21.90;67.60;;;;;;5018311;28;20524;-90
2021/05/31 06:10:16;;;;;;;30.20;5.32;;;22.10;68.40;;;;;;5018097;28;20075;-90
2021/05/31 06:12:42;;;;;;;31.50;5.32;;;22.80;65.90;;;;;;5017677;28;20077;-90
2021/05/31 06:15:11;;;;;;;23.42;4.63;;;23.20;63.90;;;;;;5017767;28;20053;-90
2021/05/31 06:17:38;;;;;;;20.50;4.45;;;23.20;62.30;;;;;;5017643;28;20124;-90
2021/05/31 06:20:06;;;;;;;30.20;4.28;;;23.70;61.80;;;;;;5017776;28;20045;-90
2021/05/31 06:22:39;;;;;;;14.25;4.78;;;24.30;59.40;;;;;;5034968;28;20490;-90
2021/05/31 06:25:10;;;;;;;18.98;4.25;;;25.10;58.30;;;;;;5017677;28;20049;-91
2021/05/31 06:27:42;;;;;;;19.48;5.55;;;26.50;56.50;;;;;;5018310;28;20045;-90
2021/05/31 06:30:10;;;;;;;11.40;3.40;;;27.30;55.00;;;;;;5017709;28;20490;-91
2021/05/31 06:32:37;;;;;;;15.50;3.60;;;27.30;50.90;;;;;;5017392;28;20045;-89
2021/05/31 06:35:05;;;;;;;15.10;5.78;;;26.50;51.90;;;;;;5017540;28;20053;-91
2021/05/31 06:37:37;;;;;;;23.00;5.53;;;25.40;53.10;;;;;;5017701;28;20049;-91
2021/05/31 06:40:10;;;;;;;25.48;5.07;;;25.50;54.20;;;;;;5019639;28;20049;-91
2021/05/31 06:42:45;;;;;;;19.88;5.32;;;24.00;56.30;;;;;;5022762;28;20502;-91
2021/05/31 06:45:22;;;;;;;16.35;5.60;;;24.20;58.90;;;;;;5035021;28;20042;-92
2021/05/31 06:47:49;;;;;;;15.25;3.60;;;25.20;57.60;;;;;;5017047;28;20413;-91
2021/05/31 06:50:17;;;;;;;9.88;2.60;;;26.00;54.90;;;;;;5017265;28;20412;-91
2021/05/31 06:52:45;;;;;;;6.05;1.80;;;26.90;53.10;;;;;;5016866;28;20442;-91
2021/05/31 06:55:13;;;;;;;11.48;2.28;;;26.50;51.80;;;;;;5016935;28;20062;-92
2021/05/31 06:57:40;;;;;;;3.88;2.20;;;27.60;51.70;;;;;;5016670;28;20052;-92
2021/05/31 07:00:11;;;;;;;7.10;2.95;;;27.10;52.20;;;;;;5017186;28;20432;-92
2021/05/31 07:02:37;;;;;;;5.40;2.60;;;27.00;50.70;;;;;;5016494;28;20053;-91
2021/05/31 07:05:06;;;;;;;4.25;1.75;;;27.10;51.10;;;;;;5016481;28;20417;-90
2021/05/31 07:07:34;;;;;;;4.80;1.40;;;27.20;51.80;;;;;;5016418;28;20107;-91
2021/05/31 07:10:01;;;;;;;2.45;1.38;;;27.20;52.20;;;;;;5034068;28;20048;-90
2021/05/31 07:12:28;;;;;;;4.35;1.42;;;27.70;51.50;;;;;;5016318;28;20099;-91
2021/05/31 07:14:56;;;;;;;3.67;1.20;;;28.50;51.50;;;;;;5015969;28;20056;-91
2021/05/31 07:17:23;;;;;;;2.72;1.35;;;27.40;51.60;;;;;;5033796;28;20053;-90
2021/05/31 07:19:50;;;;;;;4.82;1.50;;;27.80;51.70;;;;;;5016680;28;20057;-91
2021/05/31 07:22:25;;;;;;;3.88;1.50;;;26.80;51.40;;;;;;5016856;28;20064;-92
2021/05/31 07:24:53;;;;;;;1.17;1.08;;;26.70;53.30;;;;;;5016484;28;20545;-92
2021/05/31 07:27:20;;;;;;;1.13;1.00;;;27.40;49.80;;;;;;5015951;28;20478;-91
2021/05/31 07:29:47;;;;;;;1.58;1.10;;;27.60;49.30;;;;;;5016294;28;20049;-89
2021/05/31 07:32:14;;;;;;;4.55;1.33;;;28.10;48.90;;;;;;5015906;28;20141;-93
2021/05/31 07:34:41;;;;;;;2.08;0.95;;;28.20;49.70;;;;;;5015467;28;20057;-92
2021/05/31 07:37:09;;;;;;;0.90;0.82;;;28.00;49.70;;;;;;5015338;28;20045;-92
2021/05/31 07:39:36;;;;;;;2.25;1.20;;;29.10;49.10;;;;;;5020844;28;20049;-90
2021/05/31 07:42:05;;;;;;;2.63;1.02;;;29.40;46.70;;;;;;5016206;28;20049;-93
2021/05/31 07:44:32;;;;;;;0.90;0.90;;;30.80;44.30;;;;;;5015837;28;20069;-93
2021/05/31 07:46:59;;;;;;;2.10;0.88;;;30.30;44.80;;;;;;5016001;28;20057;-91
2021/05/31 07:49:26;;;;;;;0.98;0.85;;;30.40;45.20;;;;;;5016211;28;20132;-91
2021/05/31 07:51:54;;;;;;;1.15;1.00;;;30.50;44.70;;;;;;5015709;28;20045;-92
2021/05/31 07:54:24;;;;;;;0.70;0.63;;;29.70;44.40;;;;;;5015528;28;20056;-90
2021/05/31 07:56:51;;;;;;;1.67;0.90;;;28.40;45.10;;;;;;5016482;28;20405;-88
2021/05/31 07:59:18;;;;;;;1.65;0.80;;;29.90;43.10;;;;;;5024750;28;20136;-91
2021/05/31 08:01:45;;;;;;;1.63;0.70;;;29.00;42.40;;;;;;5017467;28;20088;-91
2021/05/31 08:04:11;;;;;;;1.33;0.80;;;30.80;41.80;;;;;;5015911;28;20391;-88
2021/05/31 08:06:39;;;;;;;4.20;0.98;;;29.50;40.50;;;;;;5015393;28;20136;-90
2021/05/31 08:09:06;;;;;;;2.13;0.60;;;30.30;42.40;;;;;;5016603;28;20139;-91
2021/05/31 08:11:33;;;;;;;2.55;0.98;;;30.40;41.40;;;;;;5018411;28;20053;-90
2021/05/31 08:14:01;;;;;;;1.02;0.80;;;29.80;40.30;;;;;;5015794;28;20133;-90
2021/05/31 08:16:29;;;;;;;1.23;0.98;;;28.80;42.40;;;;;;5016386;28;20389;-89
2021/05/31 08:18:56;;;;;;;2.03;0.93;;;28.90;42.90;;;;;;5016027;28;20096;-90
2021/05/31 08:21:23;;;;;;;2.05;0.75;;;31.20;41.20;;;;;;5015437;28;20053;-91
2021/05/31 08:23:50;;;;;;;1.08;0.65;;;31.80;40.50;;;;;;5016101;28;20053;-91
2021/05/31 08:26:19;;;;;;;3.88;1.25;;;31.70;38.90;;;;;;5019101;28;20046;-90
2021/05/31 08:28:47;;;;;;;0.82;0.70;;;31.10;38.10;;;;;;5020437;28;20045;-90
2021/05/31 08:31:15;;;;;;;1.40;1.10;;;30.30;39.60;;;;;;5020042;28;20049;-91
2021/05/31 08:33:42;;;;;;;2.30;1.10;;;30.10;39.60;;;;;;5019565;28;20053;-89
2021/05/31 08:36:09;;;;;;;0.93;0.93;;;29.60;40.50;;;;;;5019365;28;20045;-89
2021/05/31 08:38:36;;;;;;;1.65;1.00;;;29.00;41.20;;;;;;5018407;28;20060;-89
2021/05/31 08:41:03;;;;;;;1.58;0.90;;;29.40;41.20;;;;;;5019753;28;20144;-92
2021/05/31 08:43:30;;;;;;;4.07;1.00;;;30.90;39.70;;;;;;5018977;28;20063;-90
2021/05/31 08:45:57;;;;;;;0.70;0.70;;;32.20;38.80;;;;;;5019995;28;20557;-89
2021/05/31 08:48:24;;;;;;;1.52;1.00;;;31.20;37.30;;;;;;5020294;28;20045;-93
2021/05/31 08:50:51;;;;;;;1.77;0.60;;;30.40;37.80;;;;;;5036781;28;20053;-93
2021/05/31 08:53:20;;;;;;;2.85;0.70;;;30.50;39.20;;;;;;5020176;28;20414;-89
2021/05/31 08:55:47;;;;;;;4.22;1.00;;;30.40;38.60;;;;;;5019138;28;20061;-91
2021/05/31 08:58:14;;;;;;;2.85;1.00;;;30.80;38.90;;;;;;5019663;28;20076;-89
2021/05/31 09:00:41;;;;;;;1.10;0.95;;;31.30;37.20;;;;;;5036165;28;20057;-90
2021/05/31 09:03:09;;;;;;;0.80;0.65;;;31.90;37.00;;;;;;5019103;28;20045;-91
2021/05/31 09:05:38;;;;;;;1.50;0.82;;;33.20;38.20;;;;;;5018806;28;20080;-89
2021/05/31 09:08:20;;;;;;;4.72;1.02;;;35.10;37.70;;;;;;5018667;28;20053;-91
2021/05/31 09:10:53;;;;;;;0.80;0.80;;;34.20;34.90;;;;;;5029906;28;20068;-89
2021/05/31 09:13:30;;;;;;;1.30;1.02;;;34.10;36.10;;;;;;5018850;28;20544;-93
2021/05/31 09:16:05;;;;;;;0.93;0.80;;;33.30;36.10;;;;;;5038291;28;20049;-89
2021/05/31 09:18:33;;;;;;;1.63;1.02;;;34.10;36.00;;;;;;5022370;28;20104;-90
2021/05/31 09:21:11;;;;;;;0.80;0.80;;;34.60;36.00;;;;;;5019422;28;20052;-90
2021/05/31 09:23:38;;;;;;;3.00;0.70;;;35.00;36.70;;;;;;5035982;28;20053;-91
2021/05/31 09:26:06;;;;;;;1.30;0.90;;;35.10;34.40;;;;;;5018797;28;20088;-93
2021/05/31 09:28:33;;;;;;;0.77;0.70;;;34.70;34.70;;;;;;5036049;28;20121;-90
2021/05/31 09:31:11;;;;;;;2.17;0.70;;;33.70;34.60;;;;;;5018944;28;20053;-93
2021/05/31 09:33:38;;;;;;;0.85;0.80;;;32.40;36.30;;;;;;5018768;28;20056;-92
2021/05/31 09:36:07;;;;;;;3.22;1.10;;;33.60;35.30;;;;;;5019300;28;20054;-91
2021/05/31 09:38:45;;;;;;;0.80;0.80;;;32.50;34.40;;;;;;5020027;28;20045;-93
2021/05/31 09:41:21;;;;;;;2.55;0.85;;;31.20;35.00;;;;;;5019064;28;20053;-92
2021/05/31 09:43:58;;;;;;;1.77;0.90;;;30.60;36.60;;;;;;5018298;28;20401;-90
2021/05/31 09:46:45;;;;;;;3.28;1.02;;;31.10;37.70;;;;;;5017850;28;20096;-93
2021/05/31 09:49:17;;;;;;;1.08;0.90;;;32.40;35.50;;;;;;5019154;28;20092;-92
2021/05/31 09:51:54;;;;;;;2.33;0.95;;;32.40;36.00;;;;;;5019449;28;20109;-94
2021/05/31 09:54:47;;;;;;;2.75;0.85;;;31.20;37.20;;;;;;5035867;28;20053;-91
2021/05/31 09:57:19;;;;;;;4.32;1.30;;;31.10;38.10;;;;;;4998817;28;20050;-93
2021/05/31 09:59:58;;;;;;;1.05;0.98;;;30.90;37.90;;;;;;4999030;28;20050;-93
2021/05/31 10:10:25;;;;;;;0.82;0.80;;;35.00;34.00;;;;;;5016634;28;20057;-92
2021/05/31 10:12:54;;;;;;;1.73;0.82;;;32.50;34.10;;;;;;5001819;28;20414;-92
2021/05/31 10:15:24;;;;;;;3.20;1.25;;;30.30;35.80;;;;;;5015841;28;20045;-92
2021/05/31 10:17:57;;;;;;;7.30;1.08;;;31.00;37.70;;;;;;4999181;28;20053;-92
2021/05/31 10:20:26;;;;;;;1.75;1.00;;;31.00;37.60;;;;;;4997519;28;20491;-92
2021/05/31 10:22:53;;;;;;;1.23;0.77;;;31.70;35.40;;;;;;5016576;28;20113;-94
2021/05/31 10:25:22;;;;;;;1.40;0.80;;;31.10;35.70;;;;;;4999750;28;20061;-91
2021/05/31 10:28:18;;;;;;;1.70;1.00;;;31.90;35.80;;;;;;5005357;28;20137;-92
2021/05/31 10:30:48;;;;;;;0.73;0.73;;;30.90;36.30;;;;;;5003420;28;20057;-93
2021/05/31 10:33:20;;;;;;;1.85;0.90;;;30.80;36.10;;;;;;4999722;28;20069;-94
2021/05/31 10:35:48;;;;;;;2.45;1.15;;;31.00;36.10;;;;;;5003718;28;20144;-92
2021/05/31 10:38:17;;;;;;;0.82;0.82;;;32.40;35.20;;;;;;4999471;28;20451;-91
2021/05/31 10:40:47;;;;;;;0.77;0.77;;;32.70;34.20;;;;;;4997502;28;20053;-92
2021/05/31 10:43:16;;;;;;;3.22;1.13;;;33.40;34.20;;;;;;4998095;28;20156;-92
2021/05/31 10:45:43;;;;;;;2.03;0.70;;;32.40;35.10;;;;;;4997829;28;20117;-90
2021/05/31 10:48:11;;;;;;;1.75;0.75;;;33.50;36.60;;;;;;4997080;28;20443;-91
2021/05/31 10:50:46;;;;;;;2.25;0.70;;;34.20;36.30;;;;;;4996987;28;20064;-92
2021/05/31 10:53:27;;;;;;;1.23;1.00;;;35.60;35.70;;;;;;4997630;28;20077;-89
2021/05/31 10:55:57;;;;;;;0.68;0.68;;;35.60;33.70;;;;;;5006000;28;20065;-89
2021/05/31 10:58:29;;;;;;;0.75;0.73;;;35.80;36.10;;;;;;5016955;28;20120;-92
2021/05/31 11:01:00;;;;;;;1.20;0.70;;;35.90;34.10;;;;;;5035789;28;20115;-92
2021/05/31 11:03:28;;;;;;;0.80;0.80;;;34.00;31.80;;;;;;5017280;28;20052;-90
2021/05/31 11:05:56;;;;;;;3.10;0.98;;;33.10;34.50;;;;;;5035132;28;20092;-92
2021/05/31 11:08:28;;;;;;;2.33;0.95;;;32.20;34.30;;;;;;5018370;28;20055;-93
2021/05/31 11:11:01;;;;;;;1.08;0.70;;;31.30;37.20;;;;;;5016365;28;20053;-92
2021/05/31 11:13:29;;;;;;;1.17;0.65;;;33.30;36.30;;;;;;5016246;28;20424;-92
2021/05/31 11:16:03;;;;;;;0.93;0.70;;;34.40;35.80;;;;;;5016198;28;20077;-94
2021/05/31 11:18:44;;;;;;;1.88;0.60;;;34.50;33.60;;;;;;5017019;28;20441;-91
2021/05/31 11:21:27;;;;;;;2.83;0.90;;;34.10;33.90;;;;;;5017390;28;20056;-90
2021/05/31 11:24:00;;;;;;;0.87;0.70;;;31.80;34.30;;;;;;5030410;28;20136;-92
2021/05/31 11:26:33;;;;;;;1.27;0.75;;;30.10;35.50;;;;;;5017017;28;20664;-91
2021/05/31 11:29:01;;;;;;;0.90;0.90;;;30.00;36.00;;;;;;5016454;28;20049;-94
2021/05/31 11:31:28;;;;;;;2.15;0.80;;;29.40;37.30;;;;;;5015715;28;20536;-93
2021/05/31 11:33:56;;;;;;;1.00;0.90;;;29.80;37.70;;;;;;5016021;28;20053;-92
2021/05/31 11:36:47;;;;;;;1.63;0.85;;;29.80;38.20;;;;;;5015956;28;20505;-90
2021/05/31 11:39:16;;;;;;;0.70;0.70;;;29.10;38.60;;;;;;5016433;28;20057;-93
2021/05/31 11:41:53;;;;;;;1.05;0.70;;;28.30;38.00;;;;;;5016092;28;20056;-90
2021/05/31 11:44:20;;;;;;;2.25;0.90;;;27.40;39.90;;;;;;5016750;28;20508;-91
2021/05/31 11:46:49;;;;;;;1.52;1.10;;;26.20;40.20;;;;;;5017222;28;20057;-92
2021/05/31 11:49:17;;;;;;;1.00;1.00;;;25.50;40.80;;;;;;5016647;28;20054;-92
2021/05/31 11:51:55;;;;;;;0.98;0.93;;;25.20;43.00;;;;;;5018708;28;20057;-92
2021/05/31 11:54:23;;;;;;;0.73;0.73;;;25.00;42.80;;;;;;5026853;28;20073;-92
2021/05/31 11:56:50;;;;;;;1.35;1.00;;;24.90;42.40;;;;;;5016016;28;20150;-93
2021/05/31 11:59:18;;;;;;;0.82;0.80;;;24.50;41.90;;;;;;5016028;28;20056;-90
2021/05/31 12:01:54;;;;;;;1.02;0.95;;;24.20;43.40;;;;;;5019743;28;20136;-91
2021/05/31 12:04:25;;;;;;;1.02;0.93;;;24.30;43.80;;;;;;5021190;28;20111;-92
2021/05/31 12:07:06;;;;;;;0.88;0.80;;;23.90;44.50;;;;;;5020386;28;20504;-91
2021/05/31 12:09:37;;;;;;;1.50;1.10;;;23.80;45.40;;;;;;5019727;28;20068;-93
2021/05/31 12:12:04;;;;;;;0.95;0.95;;;23.90;45.00;;;;;;5022389;28;20121;-93
2021/05/31 12:14:42;;;;;;;2.05;1.08;;;23.50;44.20;;;;;;5020980;28;20057;-90
2021/05/31 12:17:13;;;;;;;2.70;1.02;;;23.10;46.10;;;;;;5020980;28;20166;-91
2021/05/31 12:19:40;;;;;;;3.03;1.00;;;22.90;46.70;;;;;;5020933;28;20140;-91
2021/05/31 12:22:08;;;;;;;2.30;1.02;;;22.60;45.50;;;;;;5021183;28;20049;-91
2021/05/31 12:24:49;;;;;;;3.50;0.90;;;22.50;46.50;;;;;;5019960;28;20501;-93
2021/05/31 12:27:25;;;;;;;1.20;1.10;;;22.70;46.10;;;;;;5019560;28;20069;-90
2021/05/31 12:29:52;;;;;;;0.88;0.75;;;22.60;46.50;;;;;;5019845;28;20129;-91
2021/05/31 12:32:21;;;;;;;2.35;1.10;;;22.60;46.30;;;;;;5022699;28;20057;-92
2021/05/31 12:34:49;;;;;;;1.10;1.00;;;22.50;45.00;;;;;;5020987;28;20140;-93
2021/05/31 12:37:21;;;;;;;3.53;0.85;;;22.40;46.60;;;;;;5021686;28;20054;-92
2021/05/31 12:39:50;;;;;;;1.52;0.90;;;22.20;44.50;;;;;;5019621;28;20049;-92
2021/05/31 12:42:36;;;;;;;1.17;1.00;;;22.10;47.10;;;;;;5019574;28;20052;-93
2021/05/31 12:45:12;;;;;;;2.42;1.00;;;22.30;48.70;;;;;;5023093;28;20132;-89
2021/05/31 12:47:41;;;;;;;1.58;1.00;;;22.30;49.80;;;;;;5019397;28;20148;-94
2021/05/31 12:50:12;;;;;;;4.32;1.40;;;22.40;50.30;;;;;;5019390;28;20144;-91
2021/05/31 12:52:45;;;;;;;2.40;0.95;;;22.50;51.10;;;;;;5019831;28;20449;-91
2021/05/31 12:55:19;;;;;;;1.50;1.05;;;22.30;48.60;;;;;;5018862;28;20059;-90
2021/05/31 12:57:48;;;;;;;4.38;1.10;;;22.20;49.40;;;;;;5020462;28;20099;-91
2021/05/31 13:00:21;;;;;;;2.40;1.00;;;22.20;50.20;;;;;;5019587;28;20053;-92
2021/05/31 13:02:51;;;;;;;2.40;1.00;;;22.40;51.10;;;;;;5025231;28;20048;-92
2021/05/31 13:05:22;;;;;;;5.70;1.52;;;22.30;48.40;;;;;;5038187;28;20061;-92
2021/05/31 13:07:52;;;;;;;1.60;1.00;;;22.20;49.30;;;;;;5027716;28;20073;-91
2021/05/31 13:10:22;;;;;;;2.47;1.50;;;22.10;49.30;;;;;;5036512;28;20075;-91
2021/05/31 13:12:55;;;;;;;1.45;0.95;;;22.10;51.50;;;;;;5028444;28;20077;-93
2021/05/31 13:15:35;;;;;;;1.95;1.23;;;22.10;50.80;;;;;;5019855;28;20136;-92
2021/05/31 13:18:21;;;;;;;3.15;1.33;;;22.30;50.40;;;;;;5018843;28;20051;-90
2021/05/31 13:20:56;;;;;;;1.38;0.90;;;22.20;51.80;;;;;;5019057;28;20057;-91